createdAt,value
2018-09-17T00:04:07.178Z,101487.47
2018-09-17T00:09:11.646Z,101486.88
2018-09-17T00:14:14.649Z,101492.92
2018-09-17T00:19:17.690Z,101501.64
2018-09-17T00:24:20.720Z,101496.47
2018-09-17T00:29:23.711Z,101495.59
2018-09-17T00:34:28.753Z,101479.09
2018-09-17T00:39:32.350Z,101469.99
2018-09-17T00:44:35.768Z,101475.27
2018-09-17T00:49:38.830Z,101468.81
2018-09-17T00:54:41.873Z,101473.87
2018-09-17T00:59:44.875Z,101479.20
2018-09-17T01:04:47.903Z,101471.53
2018-09-17T01:09:50.931Z,101470.91
2018-09-17T01:14:53.994Z,101473.89
2018-09-17T01:19:58.241Z,101470.45
2018-09-17T01:25:02.078Z,101468.39
2018-09-17T01:30:05.643Z,101468.72
2018-09-17T01:35:08.713Z,101465.34
2018-09-17T01:40:11.799Z,101459.77
2018-09-17T01:45:14.850Z,101454.45
2018-09-17T01:50:17.955Z,101446.67
2018-09-17T01:55:20.989Z,101444.17
2018-09-17T02:00:24.046Z,101445.55
2018-09-17T02:05:29.734Z,101439.20
2018-09-17T02:10:33.470Z,101434.94
2018-09-17T02:15:37.116Z,101430.27
2018-09-17T02:20:40.122Z,101430.50
2018-09-17T02:25:43.159Z,101435.09
2018-09-17T02:30:46.217Z,101431.11
2018-09-17T02:35:49.235Z,101436.73
2018-09-17T02:40:52.254Z,101438.05
2018-09-17T02:45:55.911Z,101445.55
2018-09-17T02:51:00.601Z,101452.55
2018-09-17T02:56:04.327Z,101445.03
2018-09-17T03:01:07.865Z,101454.70
2018-09-17T03:06:10.860Z,101452.39
2018-09-17T03:11:13.886Z,101448.05
2018-09-17T03:16:17.247Z,101457.75
2018-09-17T03:21:20.651Z,101456.23
2018-09-17T03:26:23.907Z,101459.86
2018-09-17T03:31:28.185Z,101470.46
2018-09-17T03:36:32.169Z,101469.59
2018-09-17T03:41:35.566Z,101475.94
2018-09-17T03:46:38.644Z,101465.14
2018-09-17T03:51:41.657Z,101447.21
2018-09-17T03:56:44.669Z,101446.22
2018-09-17T04:01:47.702Z,101445.88
2018-09-17T04:06:50.700Z,101446.20
2018-09-17T04:11:53.756Z,101440.87
2018-09-17T04:16:57.458Z,101452.22
2018-09-17T04:22:01.670Z,101449.77
2018-09-17T04:27:04.580Z,101449.73
2018-09-17T04:32:07.596Z,101452.02
2018-09-17T04:37:10.605Z,101456.12
2018-09-17T04:42:13.624Z,101457.05
2018-09-17T04:47:17.631Z,101458.02
2018-09-17T04:52:21.753Z,101469.03
2018-09-17T04:57:25.429Z,101477.55
2018-09-17T05:02:28.416Z,101475.88
2018-09-17T05:07:31.469Z,101467.09
2018-09-17T05:12:34.481Z,101467.18
2018-09-17T05:17:37.604Z,101478.07
2018-09-17T05:22:40.614Z,101477.77
2018-09-17T05:27:43.636Z,101488.84
2018-09-17T05:32:47.624Z,101493.32
2018-09-17T05:37:51.214Z,101495.27
2018-09-17T05:42:55.062Z,101504.72
2018-09-17T05:47:58.235Z,101506.02
2018-09-17T05:53:01.225Z,101502.38
2018-09-17T05:58:04.340Z,101497.97
2018-09-17T06:03:07.359Z,101488.41
2018-09-17T06:08:10.397Z,101495.60
2018-09-17T06:13:13.465Z,101502.13
2018-09-17T06:18:17.786Z,101502.55
2018-09-17T06:23:21.405Z,101511.18
2018-09-17T06:28:25.081Z,101515.34
2018-09-17T06:33:28.177Z,101520.30
2018-09-17T06:38:31.190Z,101527.18
2018-09-17T06:43:34.189Z,101529.83
2018-09-17T06:48:37.189Z,101537.34
2018-09-17T06:53:40.218Z,101538.33
2018-09-17T06:58:44.922Z,101460.83
2018-09-17T07:03:49.198Z,101548.72
2018-09-17T07:08:52.936Z,101548.29
2018-09-17T07:13:56.225Z,101543.25
2018-09-17T07:18:59.262Z,101540.45
2018-09-17T07:24:02.301Z,101542.59
2018-09-17T07:29:05.567Z,101541.58
2018-09-17T07:34:08.560Z,101536.58
2018-09-17T07:39:11.794Z,101538.77
2018-09-17T07:44:15.495Z,101536.45
2018-09-17T07:49:19.428Z,101538.48
2018-09-17T07:54:23.158Z,101547.12
2018-09-17T07:59:26.781Z,101540.78
2018-09-17T08:04:30.464Z,101548.56
2018-09-17T08:09:33.599Z,101556.64
2018-09-17T08:14:36.640Z,101561.03
2018-09-17T08:19:39.702Z,101549.44
2018-09-17T08:24:42.747Z,101547.26
2018-09-17T08:29:45.766Z,101542.23
2018-09-17T08:34:49.041Z,101533.22
2018-09-17T08:39:53.123Z,101533.30
2018-09-17T08:44:56.623Z,101528.63
2018-09-17T08:49:59.949Z,101520.81
2018-09-17T08:55:10.043Z,101508.59
2018-09-17T09:00:17.110Z,101518.09
2018-09-17T09:05:26.758Z,101524.91
2018-09-17T09:11:39.631Z,101529.78
2018-09-17T09:16:43.095Z,101528.91
2018-09-17T09:21:46.931Z,101522.14
2018-09-17T09:26:52.489Z,101522.44
2018-09-17T09:31:56.595Z,101517.42
2018-09-17T09:36:59.665Z,101512.73
2018-09-17T09:42:02.809Z,101516.54
2018-09-17T09:47:05.882Z,101517.28
2018-09-17T09:52:08.917Z,101508.85
2018-09-17T09:57:12.049Z,101509.78
2018-09-17T10:02:21.268Z,101501.23
2018-09-17T10:07:25.913Z,101501.58
2018-09-17T10:12:35.330Z,101498.83
2018-09-17T10:17:44.090Z,101496.52
2018-09-17T10:22:47.130Z,101498.97
2018-09-17T10:27:52.024Z,101498.01
2018-09-17T10:32:56.387Z,101486.91
2018-09-17T10:38:00.534Z,101491.32
2018-09-17T10:43:04.549Z,101482.98
2018-09-17T10:48:08.709Z,101478.42
2018-09-17T10:53:12.571Z,101471.98
2018-09-17T10:58:16.619Z,101472.00
2018-09-17T11:03:21.602Z,101464.57
2018-09-17T11:08:25.510Z,101467.42
2018-09-17T11:13:28.589Z,101458.63
2018-09-17T11:18:31.623Z,101450.77
2018-09-17T11:23:34.702Z,101450.73
2018-09-17T11:28:37.753Z,101444.75
2018-09-17T11:33:40.817Z,101442.38
2018-09-17T11:38:46.617Z,101436.25
2018-09-17T11:43:50.507Z,101439.83
2018-09-17T11:48:56.344Z,101439.30
2018-09-17T11:53:59.468Z,101432.55
2018-09-17T11:59:02.565Z,101428.30
2018-09-17T12:04:11.453Z,101425.47
2018-09-17T12:09:14.578Z,101422.09
2018-09-17T12:14:18.821Z,101414.28
2018-09-17T12:19:23.369Z,101411.83
2018-09-17T12:24:27.589Z,101406.56
2018-09-17T12:29:30.613Z,101401.33
2018-09-17T12:34:33.663Z,101390.06
2018-09-17T12:39:36.739Z,101382.64
2018-09-17T12:44:39.829Z,101379.66
2018-09-17T12:49:43.954Z,101370.09
2018-09-17T12:54:47.044Z,101360.08
2018-09-17T12:59:50.782Z,101354.88
2018-09-17T13:04:53.844Z,101351.08
2018-09-17T13:09:58.717Z,101355.89
2018-09-17T13:15:02.841Z,101348.53
2018-09-17T13:20:07.415Z,101350.17
2018-09-17T13:25:10.458Z,101342.94
2018-09-17T13:30:13.530Z,101342.52
2018-09-17T13:35:16.615Z,101338.16
2018-09-17T13:40:19.653Z,101332.05
2018-09-17T13:45:23.128Z,101337.41
2018-09-17T13:50:29.063Z,101336.53
2018-09-17T13:55:32.753Z,101326.02
2018-09-17T14:00:36.605Z,101320.75
2018-09-17T14:05:41.740Z,101317.81
2018-09-17T14:10:44.890Z,101325.65
2018-09-17T14:15:53.666Z,101315.50
2018-09-17T14:20:58.140Z,101312.39
2018-09-17T14:26:03.216Z,101310.00
2018-09-17T14:31:06.648Z,101307.84
2018-09-17T14:36:10.753Z,101301.31
2018-09-17T14:41:13.892Z,101293.07
2018-09-17T14:46:17.554Z,101291.52
2018-09-17T14:51:21.153Z,101286.48
2018-09-17T14:56:25.592Z,101265.13
2018-09-17T15:01:29.517Z,101275.83
2018-09-17T15:06:33.429Z,101277.59
2018-09-17T15:11:36.483Z,101266.58
2018-09-17T15:16:39.577Z,101269.00
2018-09-17T15:21:42.629Z,101266.38
2018-09-17T15:26:46.256Z,101256.80
2018-09-17T15:31:49.681Z,101252.09
2018-09-17T15:36:54.911Z,101253.30
2018-09-17T15:41:58.938Z,101247.87
2018-09-17T15:47:01.995Z,101239.94
2018-09-17T15:52:05.234Z,101241.22
2018-09-17T15:57:08.362Z,101239.22
2018-09-17T16:02:11.490Z,101228.66
2018-09-17T16:07:15.528Z,101225.86
2018-09-17T16:12:19.762Z,101223.95
2018-09-17T16:17:22.789Z,101219.05
2018-09-17T16:22:25.986Z,101216.59
2018-09-17T16:27:30.214Z,101220.34
2018-09-17T16:32:35.731Z,101217.69
2018-09-17T16:37:40.840Z,101218.33
2018-09-17T16:42:47.306Z,101220.96
2018-09-17T16:47:51.756Z,101214.47
2018-09-17T16:52:54.941Z,101224.43
2018-09-17T16:57:57.975Z,101218.61
2018-09-17T17:03:00.977Z,101227.75
2018-09-17T17:08:04.086Z,101219.66
2018-09-17T17:13:07.386Z,101220.53
2018-09-17T17:18:12.238Z,101225.06
2018-09-17T17:23:16.130Z,101210.23
2018-09-17T17:28:20.046Z,101210.16
2018-09-17T17:33:23.263Z,101215.80
2018-09-17T17:38:26.319Z,101213.70
2018-09-17T17:43:30.614Z,101218.96
2018-09-17T17:48:34.500Z,101218.50
2018-09-17T17:53:39.098Z,101217.05
2018-09-17T17:58:42.246Z,101219.35
2018-09-17T18:03:45.611Z,101213.61
2018-09-17T18:08:48.914Z,101213.22
2018-09-17T18:13:52.116Z,101215.49
2018-09-17T18:18:55.587Z,101211.75
2018-09-17T18:23:59.790Z,101214.51
2018-09-17T18:29:03.759Z,101209.34
2018-09-17T18:34:09.251Z,101214.77
2018-09-17T18:39:12.832Z,101214.60
2018-09-17T18:44:17.329Z,101204.36
2018-09-17T18:49:21.116Z,101204.20
2018-09-17T18:54:24.662Z,101204.61
2018-09-17T18:59:28.912Z,101204.71
2018-09-17T19:04:32.267Z,101211.30
2018-09-17T19:09:42.528Z,101204.87
2018-09-17T19:14:52.480Z,101211.00
2018-09-17T19:19:56.511Z,101212.44
2018-09-17T19:25:00.148Z,101207.92
2018-09-17T19:30:04.521Z,101206.98
2018-09-17T19:35:08.864Z,101198.58
2018-09-17T19:40:16.479Z,101194.85
2018-09-17T19:45:25.934Z,101197.58
2018-09-17T19:50:35.155Z,101193.05
2018-09-17T19:55:39.142Z,101191.94
2018-09-17T20:00:45.468Z,101178.45
2018-09-17T20:05:55.492Z,101177.23
2018-09-17T20:11:00.134Z,101172.70
2018-09-17T20:16:04.366Z,101184.09
2018-09-17T20:21:10.079Z,101173.92
2018-09-17T20:26:15.364Z,101171.84
2018-09-17T20:31:21.566Z,101173.77
2018-09-17T20:36:24.636Z,101159.67
2018-09-17T20:41:27.784Z,101164.20
2018-09-17T20:46:30.801Z,101159.17
2018-09-17T20:51:33.854Z,101154.39
2018-09-17T20:56:36.942Z,101154.41
2018-09-17T21:01:42.219Z,101144.56
2018-09-17T21:06:46.712Z,101140.69
2018-09-17T21:11:50.990Z,101131.95
2018-09-17T21:16:55.093Z,101121.52
2018-09-17T21:21:58.118Z,101122.28
2018-09-17T21:27:01.132Z,101117.01
2018-09-17T21:32:04.817Z,101118.79
2018-09-17T21:37:09.289Z,101110.92
2018-09-17T21:42:14.467Z,101110.06
2018-09-17T21:47:18.137Z,101108.47
2018-09-17T21:52:21.595Z,101113.48
2018-09-17T21:57:24.627Z,101108.76
2018-09-17T22:02:28.896Z,101104.93
2018-09-17T22:07:31.977Z,101101.03
2018-09-17T22:12:35.048Z,101090.78
2018-09-17T22:17:38.875Z,101087.17
2018-09-17T22:22:43.878Z,101082.62
2018-09-17T22:27:48.030Z,101078.44
2018-09-17T22:32:51.425Z,101083.80
2018-09-17T22:37:54.564Z,101083.78
2018-09-17T22:42:57.601Z,101073.06
2018-09-17T22:48:00.636Z,101076.36
2018-09-17T22:53:03.793Z,101078.27
2018-09-17T22:58:07.247Z,101081.26
2018-09-17T23:03:12.166Z,101078.03
2018-09-17T23:08:15.742Z,101084.83
2018-09-17T23:13:19.002Z,101083.11
2018-09-17T23:18:22.019Z,101083.03
2018-09-17T23:23:25.034Z,101077.07
2018-09-17T23:28:28.063Z,101070.91
2018-09-17T23:33:31.078Z,101075.45
2018-09-17T23:38:34.541Z,101073.45
2018-09-17T23:43:38.662Z,101078.73
2018-09-17T23:48:44.343Z,101066.34
2018-09-17T23:53:47.788Z,101070.58
2018-09-17T23:58:51.360Z,101067.56
